Últimos artigos:
Acender um LED com a tensão da rede eléctrica
Programação do Yaesu FT-60 para os EasySats
AO-91 (RadFxSat Fox-1B) está no Ar!
CT7AFR DIY CW-Keyer
Shutdown button for the Raspberry Pi
Simple C code to dump I2C device memory
Últimas fotos:
Últimos METARs:
LPAZ 211730Z 02016KT 9999 FEW015 SCT020 BK...
LPFR 211730Z 34006KT 9999 FEW030 15/04 Q10...
LPHR 211730Z 07009KT 030V110 9999 SCT012 S...
LPLA 211700Z /////KT 9999 FEW014 BKN030 16...
LPMA 211730Z 36010KT 320V040 9999 -SHRA SC...
LPPD 211730Z 01013G24KT 330V050 9999 SCT01...
LPPR 211730Z 34009KT CAVOK 11/07 Q1024=
LPPS 211730Z 03012KT 9999 FEW015 SCT030 16...
LPPT 211730Z 35013KT 9999 FEW025 11/06 Q10...
Últimos QSOs:
2018/09/08-11:04 40m DJ5AV (MICHAEL)
2018/09/08-11:03 40m M3FEH (KARL)
2018/09/08-11:01 40m EB7HQE (JESUS)
2018/09/08-11:00 40m G4AFI (ANDREW)
2018/09/08-10:59 40m EA2DT (MANUEL)
2018/09/08-10:58 40m GW0PLP (DON)
  UTC
Rpi-6 CPU Temp: 28.2 °C (211811Z)
IN51oq 1812Z /////KT //// 16/10 Q1024=
9103